Moscow, Ohio
Current Conditions -  °F | °C
As of 1:53 PM on Friday 31 Oct 2014 (Local Time) from KLUK Reporting Station
Light Rain Light Rain  
Wind Chill: 40°   Ceiling: 2700
Heat Index: 44°   Visibility: 6mi
Dew Point: 40°   Wind: 7mph
Humidity: 85%   Direction: 290°WNW
Pressure: 29.93"   Gusts: NA
Location:  38.86°N, 84.23°W
Report Text: KLUK 311753Z 29006KT 6SM -RA BR OVC027 07/04 A2993 RMK AO2 SLP137 P0007 60008 T00670044 10089 20061 58014
Loading
Personal Weather Stations






























Interactive Weather Map
Tropical Storm Tracking
New forecast layout! Learn more

10-Day Weather Forecast

Advertisements
Track Severe Weather on mobile